CORENTIN : 2016-01-19 TO 2016-01-31

TRACK (PNG IMAGE)  /  KML Google Earth

Date Lat °S Long °E CI Pressure hPa MeanMaxWind Gusts Type
2016-01-19 1800 -13.49 78.43 1 1002 25 kt, 46 km/h 35 kt, 65 km/h Disturbance
2016-01-20 0000 -13.99 78.27 1 1002 25 kt, 46 km/h 35 kt, 65 km/h Disturbance
2016-01-20 0600 -14.46 77.81 1.5 1001 27 kt, 50 km/h 40 kt, 74 km/h Tropical Disturbance
2016-01-20 1200 -14.84 77.01 1.5 1000 28 kt, 52 km/h 40 kt, 74 km/h Tropical Depression
2016-01-20 1800 -14.99 76.26 2 999 30 kt, 56 km/h 40 kt, 74 km/h Tropical Depression
2016-01-21 0000 -14.93 75.63 2 995 35 kt, 65 km/h 50 kt, 93 km/h Moderate Tropical Storm
2016-01-21 0600 -15.02 74.77 2.5 990 43 kt, 80 km/h 60 kt, 111 km/h Moderate Tropical Storm
2016-01-21 1200 -15.85 74.06 2.5 988 45 kt, 83 km/h 65 kt, 120 km/h Moderate Tropical Storm
2016-01-21 1800 -16.62 73.66 3 987 47 kt, 87 km/h 65 kt, 120 km/h Moderate Tropical Storm
2016-01-22 0000 -17.59 73.19 3.5 986 48 kt, 89 km/h 70 kt, 130 km/h Severe Tropical Storm
2016-01-22 0600 -18.57 72.33 3.5 985 50 kt, 93 km/h 70 kt, 130 km/h Severe Tropical Storm
2016-01-22 1200 -19.78 71.94 3.5 982 53 kt, 98 km/h 75 kt, 139 km/h Severe Tropical Storm
2016-01-22 1800 -20.64 71.83 4 978 57 kt, 106 km/h 80 kt, 148 km/h Severe Tropical Storm
2016-01-23 0000 -21.57 71.85 4 975 60 kt, 111 km/h 85 kt, 157 km/h Severe Tropical Storm
2016-01-23 0600 -22.8 72.12 4 975 60 kt, 111 km/h 85 kt, 157 km/h Severe Tropical Storm
2016-01-23 1200 -23.83 72.56 4 978 57 kt, 106 km/h 80 kt, 148 km/h Severe Tropical Storm
2016-01-23 1800 -24.68 73.16 4 982 53 kt, 98 km/h 75 kt, 139 km/h Severe Tropical Storm
2016-01-24 0000 -25.58 73.97 3.5 985 50 kt, 93 km/h 70 kt, 130 km/h Severe Tropical Storm
2016-01-24 0600 -26.41 74.92 3.5 987 47 kt, 87 km/h 65 kt, 120 km/h Moderate Tropical Storm
2016-01-24 1200 -27.01 75.82 3.5 988 45 kt, 83 km/h 65 kt, 120 km/h Moderate Tropical Storm
2016-01-24 1800 -27.3 76.51 3 988 45 kt, 83 km/h 65 kt, 120 km/h Post-Tropical Depression
2016-01-25 0000 -27.27 77.22 3 990 43 kt, 80 km/h 60 kt, 111 km/h Post-Tropical Depression
2016-01-25 0600 -27.38 78.25 0 991 42 kt, 78 km/h 60 kt, 111 km/h Post-Tropical Depression
2016-01-25 1200 -27.35 79.12 0 992 40 kt, 74 km/h 55 kt, 102 km/h Post-Tropical Depression
2016-01-25 1800 -26.03 79.19 0 992 40 kt, 74 km/h 55 kt, 102 km/h Post-Tropical Depression
2016-01-26 0000 -26.46 79.99 0 992 40 kt, 74 km/h 55 kt, 102 km/h Post-Tropical Depression
2016-01-26 0600 -26.8 79.53 0 992 40 kt, 74 km/h 55 kt, 102 km/h Post-Tropical Depression
2016-01-26 1200 -26.99 78.98 0 992 40 kt, 74 km/h 55 kt, 102 km/h Post-Tropical Depression
2016-01-26 1800 -26.94 77.94 0 992 40 kt, 74 km/h 55 kt, 102 km/h Post-Tropical Depression
2016-01-27 0000 -27.67 76.92 0 991 40 kt, 74 km/h 55 kt, 102 km/h Post-Tropical Depression
2016-01-27 0600 -27.69 75.97 0 991 40 kt, 74 km/h 55 kt, 102 km/h Post-Tropical Depression
2016-01-27 1200 -27.4 76.31 0 991 40 kt, 74 km/h 55 kt, 102 km/h Post-Tropical Depression
2016-01-27 1800 -27.77 76.71 0 991 40 kt, 74 km/h 55 kt, 102 km/h Post-Tropical Depression
2016-01-28 0000 -28.39 76.65 0 993 37 kt, 69 km/h 50 kt, 93 km/h Post-Tropical Depression
2016-01-28 0600 -28.8 76.48 0 995 35 kt, 65 km/h 50 kt, 93 km/h Post-Tropical Depression
2016-01-28 1200 -28.71 76.53 0 997 32 kt, 59 km/h 45 kt, 83 km/h Remnant Low
2016-01-28 1800 -28.36 76.75 0 1000 28 kt, 52 km/h 40 kt, 74 km/h Remnant Low
2016-01-29 0000 -28.18 76.78 0 1000 30 kt, 56 km/h 40 kt, 74 km/h Remnant Low
2016-01-29 0600 -28.06 76.66 0 1000 30 kt, 56 km/h 40 kt, 74 km/h Remnant Low
2016-01-29 1200 -28.04 76.49 0 1000 30 kt, 56 km/h 40 kt, 74 km/h Remnant Low
2016-01-29 1800 -28.53 76.33 0 1001 30 kt, 56 km/h 40 kt, 74 km/h Remnant Low
2016-01-30 0000 -29.69 76.15 0 1001 30 kt, 56 km/h 40 kt, 74 km/h Remnant Low
2016-01-30 0600 -30.87 76.12 0 1001 32 kt, 59 km/h 45 kt, 83 km/h Remnant Low
2016-01-30 1200 -31.15 75.85 0 1000 35 kt, 65 km/h 50 kt, 93 km/h Remnant Low
2016-01-30 1800 -30.3 75.11 0 1001 35 kt, 65 km/h 50 kt, 93 km/h Remnant Low
2016-01-31 0000 -30.09 74.38 0 1001 33 kt, 61 km/h 45 kt, 83 km/h Remnant Low
2016-01-31 0600 -30.29 73.91 0 1002 30 kt, 56 km/h 40 kt, 74 km/h Remnant Low